Time;durP1;ratioP1;P1;durP2;ratioP2;P2;SDS_P1;SDS_P2;PMS_P1;PMS_P2;Temp;Humidity;BMP_temperature;BMP_pressure;BME280_temperature;BME280_humidity;BME280_pressure;Samples;Min_cycle;Max_cycle;Signal;HPM_P1;HPM_P2
2021/10/13 00:02:06;;;;;;;;;;;13.50;99.90;;;;;;5055699;28;825;-43
2021/10/13 00:04:32;;;;;;;;;;;13.50;99.90;;;;;;5056382;28;758;-43
2021/10/13 00:06:57;;;;;;;;;;;13.50;99.90;;;;;;5056684;28;854;-43
2021/10/13 00:09:23;;;;;;;;;;;13.50;99.90;;;;;;5056650;28;864;-44
2021/10/13 00:11:48;;;;;;;;;;;13.50;99.90;;;;;;5056505;28;895;-43
2021/10/13 00:14:14;;;;;;;;;;;13.50;99.90;;;;;;5056330;28;804;-43
2021/10/13 00:16:41;;;;;;;;;;;13.50;99.90;;;;;;5056582;28;828;-43
2021/10/13 00:19:08;;;;;;;;;;;13.40;99.90;;;;;;5056459;28;1902;-43
2021/10/13 00:21:34;;;;;;;;;;;13.40;99.90;;;;;;5056343;28;793;-43
2021/10/13 00:24:00;;;;;;;;;;;13.40;99.90;;;;;;5056165;28;738;-44
2021/10/13 00:26:25;;;;;;;;;;;13.40;99.90;;;;;;5056255;28;779;-43
2021/10/13 00:28:51;;;;;;;;;;;13.40;99.90;;;;;;5056058;28;940;-43
2021/10/13 00:31:16;;;;;;;;;;;13.40;99.90;;;;;;5056154;28;793;-43
2021/10/13 00:33:43;;;;;;;;;;;13.40;99.90;;;;;;5057187;28;1137;-43
2021/10/13 00:36:10;;;;;;;;;;;13.40;99.90;;;;;;5055929;28;789;-43
2021/10/13 00:38:36;;;;;;;;;;;13.40;99.90;;;;;;5038414;28;1957;-43
2021/10/13 00:41:02;;;;;;;;;;;13.40;99.90;;;;;;5056303;28;956;-43
2021/10/13 00:43:27;;;;;;;;;;;13.40;99.90;;;;;;5055925;28;738;-41
2021/10/13 00:45:55;;;;;;;;;;;13.30;99.90;;;;;;5056593;28;856;-41
2021/10/13 00:48:20;;;;;;;;;;;13.30;99.90;;;;;;5056244;28;862;-41
2021/10/13 00:50:46;;;;;;;;;;;13.30;99.90;;;;;;5055931;28;853;-41
2021/10/13 00:53:15;;;;;;;;;;;13.30;99.90;;;;;;5055940;28;979;-41
2021/10/13 00:55:40;;;;;;;;;;;13.30;99.90;;;;;;5055864;28;773;-41
2021/10/13 00:58:06;;;;;;;;;;;13.30;99.90;;;;;;5055509;28;1953;-41
2021/10/13 01:00:31;;;;;;;;;;;13.30;99.90;;;;;;5055746;28;1279;-41
2021/10/13 01:02:57;;;;;;;;;;;13.30;99.90;;;;;;5056145;28;880;-41
2021/10/13 01:05:42;;;;;;;;;;;13.30;99.90;;;;;;5055710;28;908;-42
2021/10/13 01:08:27;;;;;;;;;;;13.30;99.90;;;;;;5055825;28;948;-41
2021/10/13 01:11:11;;;;;;;;;;;13.30;99.90;;;;;;5055729;28;912;-41
2021/10/13 01:13:48;;;;;;;;;;;13.30;99.90;;;;;;5057622;28;906;-41
2021/10/13 01:16:24;;;;;;;;;;;13.30;99.90;;;;;;5059910;28;839;-41
2021/10/13 01:18:56;;;;;;;;;;;13.30;99.90;;;;;;5060102;28;1898;-41
2021/10/13 01:21:40;;;;;;;;;;;13.30;99.90;;;;;;5060165;28;1536;-41
2021/10/13 01:24:17;;;;;;;;;;;13.30;99.90;;;;;;5059714;28;854;-41
2021/10/13 01:26:52;;;;;;;;;;;13.20;99.90;;;;;;5058887;28;1374;-41
2021/10/13 01:29:21;;;;;;;;;;;13.20;99.90;;;;;;5059610;28;835;-43
2021/10/13 01:31:54;;;;;;;;;;;13.20;99.90;;;;;;5058432;28;1517;-44
2021/10/13 01:34:28;;;;;;;;;;;13.20;99.90;;;;;;5059592;28;860;-43
2021/10/13 01:37:02;;;;;;;;;;;13.20;99.90;;;;;;5059367;28;868;-43
2021/10/13 01:39:30;;;;;;;;;;;13.20;99.90;;;;;;5059431;28;1957;-43
2021/10/13 01:41:57;;;;;;;;;;;13.20;99.90;;;;;;5059207;28;769;-43
2021/10/13 01:44:27;;;;;;;;;;;13.20;99.90;;;;;;5059378;28;892;-43
2021/10/13 01:46:54;;;;;;;;;;;13.20;99.90;;;;;;5059044;28;932;-43
2021/10/13 01:49:22;;;;;;;;;;;13.20;99.90;;;;;;5059291;28;882;-43
2021/10/13 01:51:48;;;;;;;;;;;13.20;99.90;;;;;;5058826;28;737;-43
2021/10/13 01:54:14;;;;;;;;;;;13.20;99.90;;;;;;5059171;28;839;-43
2021/10/13 01:56:40;;;;;;;;;;;13.20;99.90;;;;;;5059252;28;801;-43
2021/10/13 01:59:07;;;;;;;;;;;13.20;99.90;;;;;;5058689;28;1973;-43
2021/10/13 02:01:33;;;;;;;;;;;13.10;99.90;;;;;;5059079;28;899;-43
2021/10/13 02:04:01;;;;;;;;;;;13.20;99.90;;;;;;5058991;28;804;-43
2021/10/13 02:06:29;;;;;;;;;;;13.10;99.90;;;;;;5058588;28;895;-43
2021/10/13 02:08:56;;;;;;;;;;;13.10;99.90;;;;;;5058646;28;844;-43
2021/10/13 02:11:26;;;;;;;;;;;13.10;99.90;;;;;;5058875;28;863;-43
2021/10/13 02:13:54;;;;;;;;;;;13.10;99.90;;;;;;5058533;28;813;-43
2021/10/13 02:16:21;;;;;;;;;;;13.10;99.90;;;;;;5058501;28;823;-43
2021/10/13 02:18:47;;;;;;;;;;;13.10;99.90;;;;;;5057476;28;1911;-43
2021/10/13 02:21:14;;;;;;;;;;;13.10;99.90;;;;;;5058488;28;875;-43
2021/10/13 02:23:40;;;;;;;;;;;13.10;99.90;;;;;;5058372;28;808;-43
2021/10/13 02:26:23;;;;;;;;;;;13.10;99.90;;;;;;5057457;28;864;-43
2021/10/13 02:28:56;;;;;;;;;;;13.10;99.90;;;;;;5057253;28;1441;-43
2021/10/13 02:31:23;;;;;;;;;;;13.10;99.90;;;;;;5058752;28;1087;-43
2021/10/13 02:33:48;;;;;;;;;;;13.10;99.90;;;;;;5058722;28;924;-43
2021/10/13 02:36:14;;;;;;;;;;;13.10;99.90;;;;;;5058272;28;844;-43
2021/10/13 02:38:39;;;;;;;;;;;13.10;99.90;;;;;;5040456;28;1975;-43
2021/10/13 02:41:04;;;;;;;;;;;13.10;99.90;;;;;;5058081;28;856;-43
2021/10/13 02:43:30;;;;;;;;;;;13.10;99.90;;;;;;5058122;28;868;-43
2021/10/13 02:46:02;;;;;;;;;;;13.00;99.90;;;;;;5057929;28;987;-43
2021/10/13 02:48:29;;;;;;;;;;;13.00;99.90;;;;;;5058265;28;863;-44
2021/10/13 02:51:16;;;;;;;;;;;13.00;99.90;;;;;;5057755;28;918;-43
2021/10/13 02:54:07;;;;;;;;;;;13.00;99.90;;;;;;5058136;28;850;-43
2021/10/13 02:56:35;;;;;;;;;;;13.00;99.90;;;;;;5058111;28;767;-43
2021/10/13 02:59:07;;;;;;;;;;;13.00;99.90;;;;;;5057597;28;1960;-43
2021/10/13 03:01:40;;;;;;;;;;;13.00;99.90;;;;;;5057676;28;818;-43
2021/10/13 03:04:09;;;;;;;;;;;13.00;99.90;;;;;;5057919;28;901;-43
2021/10/13 03:06:37;;;;;;;;;;;13.00;99.90;;;;;;5057376;28;857;-43
2021/10/13 03:09:03;;;;;;;;;;;13.00;99.90;;;;;;5057504;28;796;-43
2021/10/13 03:11:30;;;;;;;;;;;13.00;99.90;;;;;;5057738;28;893;-43
2021/10/13 03:13:59;;;;;;;;;;;13.00;99.90;;;;;;5057314;28;812;-43
2021/10/13 03:16:26;;;;;;;;;;;13.00;99.90;;;;;;5057622;28;801;-43
2021/10/13 03:18:52;;;;;;;;;;;13.00;99.90;;;;;;5057545;28;1968;-43
2021/10/13 03:21:17;;;;;;;;;;;12.90;99.90;;;;;;5057075;28;844;-43
2021/10/13 03:23:43;;;;;;;;;;;12.90;99.90;;;;;;5057282;28;832;-43
2021/10/13 03:26:10;;;;;;;;;;;12.90;99.90;;;;;;5057200;28;845;-43
2021/10/13 03:28:37;;;;;;;;;;;12.90;99.90;;;;;;5056904;28;757;-43
2021/10/13 03:31:04;;;;;;;;;;;12.90;99.90;;;;;;5057086;28;781;-43
2021/10/13 03:33:32;;;;;;;;;;;12.90;99.90;;;;;;5057532;28;1604;-44
2021/10/13 03:35:59;;;;;;;;;;;12.90;99.90;;;;;;5063088;28;1250;-43
2021/10/13 03:38:26;;;;;;;;;;;12.90;99.90;;;;;;5056981;28;1952;-43
2021/10/13 03:40:51;;;;;;;;;;;12.90;99.90;;;;;;5056897;28;975;-43
2021/10/13 03:43:17;;;;;;;;;;;12.90;99.90;;;;;;5056706;28;829;-43
2021/10/13 03:45:43;;;;;;;;;;;12.90;99.90;;;;;;5057136;28;829;-43
2021/10/13 03:48:09;;;;;;;;;;;12.90;99.90;;;;;;5056819;28;824;-43
2021/10/13 03:50:35;;;;;;;;;;;12.90;99.90;;;;;;5055487;28;1640;-43
2021/10/13 03:53:01;;;;;;;;;;;12.90;99.90;;;;;;5063685;28;812;-43
2021/10/13 03:55:28;;;;;;;;;;;12.90;99.90;;;;;;5076652;28;888;-43
2021/10/13 03:57:53;;;;;;;;;;;12.80;99.90;;;;;;5072980;28;1952;-44
2021/10/13 04:00:20;;;;;;;;;;;12.90;99.90;;;;;;5056496;28;1153;-43
2021/10/13 04:02:45;;;;;;;;;;;12.90;99.90;;;;;;5056522;28;856;-43
2021/10/13 04:05:11;;;;;;;;;;;12.80;99.90;;;;;;5056358;28;832;-43
2021/10/13 04:07:37;;;;;;;;;;;12.80;99.90;;;;;;5057027;28;841;-43
2021/10/13 04:10:05;;;;;;;;;;;12.80;99.90;;;;;;5057231;28;991;-43
2021/10/13 04:12:30;;;;;;;;;;;12.80;99.90;;;;;;5056279;28;825;-42
2021/10/13 04:14:56;;;;;;;;;;;12.80;99.90;;;;;;5056368;28;777;-42
2021/10/13 04:17:21;;;;;;;;;;;12.80;99.90;;;;;;5056543;28;1898;-41
2021/10/13 04:19:47;;;;;;;;;;;12.80;99.90;;;;;;5056154;28;797;-41
2021/10/13 04:22:12;;;;;;;;;;;12.80;99.90;;;;;;5056273;28;928;-41
2021/10/13 04:24:38;;;;;;;;;;;12.80;99.90;;;;;;5056217;28;805;-43
2021/10/13 04:27:04;;;;;;;;;;;12.80;99.90;;;;;;5056032;28;892;-43
2021/10/13 04:29:30;;;;;;;;;;;12.80;99.90;;;;;;5056109;28;833;-43
2021/10/13 04:31:56;;;;;;;;;;;12.80;99.90;;;;;;5056399;28;895;-43
2021/10/13 04:34:21;;;;;;;;;;;12.80;99.90;;;;;;5056383;28;805;-44
2021/10/13 04:36:47;;;;;;;;;;;12.80;99.90;;;;;;5055955;28;812;-43
2021/10/13 04:39:12;;;;;;;;;;;12.80;99.90;;;;;;5056132;28;1960;-43
2021/10/13 04:41:39;;;;;;;;;;;12.80;99.90;;;;;;5056052;28;809;-43
2021/10/13 04:44:06;;;;;;;;;;;12.80;99.90;;;;;;5056180;28;860;-43
2021/10/13 04:46:32;;;;;;;;;;;12.80;99.90;;;;;;5056002;28;804;-43
2021/10/13 04:48:59;;;;;;;;;;;12.80;99.90;;;;;;5058499;28;843;-43
2021/10/13 04:51:24;;;;;;;;;;;12.80;99.90;;;;;;5059325;28;1507;-43
2021/10/13 04:53:50;;;;;;;;;;;12.80;99.90;;;;;;5060327;28;797;-43
2021/10/13 04:56:15;;;;;;;;;;;12.80;99.90;;;;;;5042485;28;746;-43
2021/10/13 04:58:41;;;;;;;;;;;12.90;99.90;;;;;;5059530;28;1894;-43
2021/10/13 05:01:08;;;;;;;;;;;13.00;99.90;;;;;;5059982;28;793;-43
2021/10/13 05:03:35;;;;;;;;;;;13.10;99.90;;;;;;5060150;28;868;-44
2021/10/13 05:06:00;;;;;;;;;;;13.30;99.90;;;;;;5059849;28;774;-43
2021/10/13 05:08:26;;;;;;;;;;;13.50;99.90;;;;;;5059768;28;848;-43
2021/10/13 05:10:51;;;;;;;;;;;13.60;99.90;;;;;;5059770;28;766;-44
2021/10/13 05:13:17;;;;;;;;;;;13.80;99.90;;;;;;5059720;28;948;-44
2021/10/13 05:15:43;;;;;;;;;;;14.00;99.90;;;;;;5059902;28;822;-43
2021/10/13 05:18:10;;;;;;;;;;;14.10;99.90;;;;;;5059785;28;1906;-43
2021/10/13 05:20:37;;;;;;;;;;;14.20;99.90;;;;;;5059458;28;792;-43
2021/10/13 05:23:04;;;;;;;;;;;14.30;99.90;;;;;;5059530;28;844;-43
2021/10/13 05:25:30;;;;;;;;;;;14.40;99.90;;;;;;5059744;28;842;-43
2021/10/13 05:27:56;;;;;;;;;;;14.50;99.90;;;;;;5059375;28;967;-43
2021/10/13 05:30:21;;;;;;;;;;;14.50;99.90;;;;;;5059663;28;853;-43
2021/10/13 05:32:46;;;;;;;;;;;14.60;99.90;;;;;;5059346;28;849;-43
2021/10/13 05:35:12;;;;;;;;;;;14.60;99.90;;;;;;5059204;28;830;-43
2021/10/13 05:37:39;;;;;;;;;;;14.60;99.90;;;;;;5058827;28;1898;-43
2021/10/13 05:40:06;;;;;;;;;;;14.60;99.90;;;;;;5059242;28;914;-43
2021/10/13 05:42:33;;;;;;;;;;;14.60;99.90;;;;;;5058981;28;968;-43
2021/10/13 05:44:58;;;;;;;;;;;14.60;99.90;;;;;;5059147;28;907;-43
2021/10/13 05:47:24;;;;;;;;;;;14.60;99.90;;;;;;5059489;28;805;-43
2021/10/13 05:49:49;;;;;;;;;;;14.60;99.90;;;;;;5059206;28;825;-43
2021/10/13 05:52:16;;;;;;;;;;;14.60;99.90;;;;;;5059015;28;839;-43
2021/10/13 05:54:42;;;;;;;;;;;14.50;99.90;;;;;;5041385;28;762;-44
2021/10/13 05:57:09;;;;;;;;;;;14.50;99.90;;;;;;5059493;28;793;-43
2021/10/13 05:59:38;;;;;;;;;;;14.50;99.90;;;;;;5057335;28;1951;-43
2021/10/13 06:02:05;;;;;;;;;;;14.50;99.90;;;;;;5059406;28;801;-43
2021/10/13 06:04:30;;;;;;;;;;;14.40;99.90;;;;;;5058757;28;829;-43
2021/10/13 06:06:55;;;;;;;;;;;14.40;99.90;;;;;;5058587;28;854;-43
2021/10/13 06:09:21;;;;;;;;;;;14.40;99.90;;;;;;5058955;28;854;-43
2021/10/13 06:11:46;;;;;;;;;;;14.40;99.90;;;;;;5058932;28;804;-43
2021/10/13 06:14:13;;;;;;;;;;;14.30;99.90;;;;;;5058451;28;888;-43
2021/10/13 06:16:40;;;;;;;;;;;14.30;99.90;;;;;;5058564;28;928;-43
2021/10/13 06:19:07;;;;;;;;;;;14.30;99.90;;;;;;5058438;28;1902;-43
2021/10/13 06:21:32;;;;;;;;;;;14.20;99.90;;;;;;5058580;28;807;-43
2021/10/13 06:23:58;;;;;;;;;;;14.20;99.90;;;;;;5058444;28;1150;-43
2021/10/13 06:26:23;;;;;;;;;;;14.20;99.90;;;;;;5058327;28;1555;-43
2021/10/13 06:28:49;;;;;;;;;;;14.20;99.90;;;;;;5058085;28;766;-43
2021/10/13 06:31:15;;;;;;;;;;;14.10;99.90;;;;;;5058519;28;781;-43
2021/10/13 06:33:42;;;;;;;;;;;14.10;99.90;;;;;;5058486;28;809;-43
2021/10/13 06:36:10;;;;;;;;;;;14.10;99.90;;;;;;5058046;28;791;-43
2021/10/13 06:38:35;;;;;;;;;;;14.10;99.90;;;;;;5058005;28;1957;-43
2021/10/13 06:41:01;;;;;;;;;;;14.10;99.90;;;;;;5057188;28;1350;-43
2021/10/13 06:43:27;;;;;;;;;;;14.00;99.90;;;;;;5058202;28;793;-43
2021/10/13 06:45:53;;;;;;;;;;;14.00;99.90;;;;;;5040497;28;785;-43
2021/10/13 06:48:20;;;;;;;;;;;14.00;99.90;;;;;;5058259;28;824;-43
2021/10/13 06:50:45;;;;;;;;;;;13.90;99.90;;;;;;5040243;28;777;-43
2021/10/13 06:53:12;;;;;;;;;;;13.90;99.90;;;;;;5058142;28;866;-43
2021/10/13 06:55:39;;;;;;;;;;;13.90;99.90;;;;;;5057814;28;887;-43
2021/10/13 06:58:05;;;;;;;;;;;13.90;99.90;;;;;;5057699;28;1902;-43
2021/10/13 07:00:30;;;;;;;;;;;13.90;99.90;;;;;;5057577;28;1409;-43
2021/10/13 07:02:57;;;;;;;;;;;14.10;99.90;;;;;;5057691;28;757;-43
2021/10/13 07:05:24;;;;;;;;;;;14.30;99.90;;;;;;5057486;28;745;-43
2021/10/13 07:07:50;;;;;;;;;;;14.40;99.90;;;;;;5058146;28;1011;-43
2021/10/13 07:10:17;;;;;;;;;;;14.50;99.90;;;;;;5057475;28;749;-43
2021/10/13 07:12:42;;;;;;;;;;;14.40;99.90;;;;;;5057566;28;856;-43
2021/10/13 07:15:08;;;;;;;;;;;14.40;99.90;;;;;;5057744;28;831;-43
2021/10/13 07:17:34;;;;;;;;;;;14.30;99.90;;;;;;5057685;28;1901;-43
2021/10/13 07:20:01;;;;;;;;;;;14.20;99.90;;;;;;5057225;28;871;-43
2021/10/13 07:22:28;;;;;;;;;;;14.10;99.90;;;;;;5057281;28;773;-43
2021/10/13 07:24:59;;;;;;;;;;;14.10;99.90;;;;;;5057259;28;849;-43
2021/10/13 07:27:26;;;;;;;;;;;14.20;99.90;;;;;;5057485;28;763;-43
2021/10/13 07:30:01;;;;;;;;;;;14.20;99.90;;;;;;5057142;28;775;-43
2021/10/13 07:32:29;;;;;;;;;;;14.10;99.90;;;;;;5057416;28;769;-43
2021/10/13 07:34:56;;;;;;;;;;;14.10;99.90;;;;;;5057078;28;840;-43
2021/10/13 07:37:23;;;;;;;;;;;14.10;99.90;;;;;;5056933;28;1511;-43
2021/10/13 07:39:48;;;;;;;;;;;14.10;99.90;;;;;;5054659;28;1965;-43
2021/10/13 07:42:14;;;;;;;;;;;14.00;99.90;;;;;;5057190;28;855;-43
2021/10/13 07:44:40;;;;;;;;;;;14.00;99.90;;;;;;5056833;28;769;-43
2021/10/13 07:47:06;;;;;;;;;;;14.00;99.90;;;;;;5056786;28;810;-43
2021/10/13 07:49:31;;;;;;;;;;;14.00;99.90;;;;;;5057083;28;1116;-43
2021/10/13 07:51:58;;;;;;;;;;;14.00;99.90;;;;;;5056836;28;840;-43
2021/10/13 07:54:25;;;;;;;;;;;14.10;99.90;;;;;;5057006;28;935;-43
2021/10/13 07:56:52;;;;;;;;;;;14.10;99.90;;;;;;5056990;28;870;-43
2021/10/13 07:59:17;;;;;;;;;;;14.00;99.90;;;;;;5056251;28;1886;-43
2021/10/13 08:01:43;;;;;;;;;;;14.10;99.90;;;;;;5056603;28;889;-43
2021/10/13 08:04:08;;;;;;;;;;;14.10;99.90;;;;;;5056641;28;910;-43
2021/10/13 08:06:34;;;;;;;;;;;14.10;99.90;;;;;;5056658;28;860;-43
2021/10/13 08:09:02;;;;;;;;;;;14.10;99.90;;;;;;5057253;28;1472;-43
2021/10/13 08:11:29;;;;;;;;;;;14.10;99.90;;;;;;5056714;28;813;-43
2021/10/13 08:13:55;;;;;;;;;;;14.10;99.90;;;;;;5056270;28;797;-43
2021/10/13 08:16:22;;;;;;;;;;;14.10;99.90;;;;;;5056136;28;877;-43
2021/10/13 08:18:48;;;;;;;;;;;14.10;99.90;;;;;;5056526;28;1961;-43
2021/10/13 08:21:13;;;;;;;;;;;14.10;99.90;;;;;;5056718;28;852;-43
2021/10/13 08:23:39;;;;;;;;;;;14.10;99.90;;;;;;5055510;28;857;-43
2021/10/13 08:26:04;;;;;;;;;;;14.10;99.90;;;;;;5056440;28;920;-43
2021/10/13 08:28:30;;;;;;;;;;;14.10;99.90;;;;;;5055956;28;897;-43
2021/10/13 08:30:57;;;;;;;;;;;14.00;99.90;;;;;;5056194;28;883;-43
2021/10/13 08:33:24;;;;;;;;;;;14.10;99.90;;;;;;5055470;28;1164;-43
2021/10/13 08:35:49;;;;;;;;;;;14.00;99.90;;;;;;5055905;28;897;-43
2021/10/13 08:38:15;;;;;;;;;;;14.00;99.90;;;;;;5056306;28;1906;-43
2021/10/13 08:40:40;;;;;;;;;;;14.00;99.90;;;;;;5056090;28;718;-43
2021/10/13 08:43:06;;;;;;;;;;;14.00;99.90;;;;;;5055904;28;852;-43
2021/10/13 08:45:33;;;;;;;;;;;14.00;99.90;;;;;;5056018;28;856;-43
2021/10/13 08:48:01;;;;;;;;;;;14.10;99.90;;;;;;5056563;28;792;-43
2021/10/13 08:50:27;;;;;;;;;;;14.10;99.90;;;;;;5055831;28;801;-43
2021/10/13 08:53:14;;;;;;;;;;;14.10;99.90;;;;;;5055585;28;1336;-43
2021/10/13 08:55:41;;;;;;;;;;;14.10;99.90;;;;;;5055601;28;1802;-43
2021/10/13 08:58:11;;;;;;;;;;;14.10;99.90;;;;;;5055628;28;1914;-43
2021/10/13 09:00:36;;;;;;;;;;;14.10;99.90;;;;;;5055719;28;1062;-43
2021/10/13 09:03:04;;;;;;;;;;;14.10;99.90;;;;;;5056444;28;804;-43
2021/10/13 09:05:29;;;;;;;;;;;14.10;99.90;;;;;;5055985;28;873;-43
2021/10/13 09:07:56;;;;;;;;;;;14.10;99.90;;;;;;5054853;28;1443;-43
2021/10/13 09:10:31;;;;;;;;;;;14.10;99.90;;;;;;5056091;28;1037;-43
2021/10/13 09:12:59;;;;;;;;;;;14.10;99.90;;;;;;5055692;28;726;-43
2021/10/13 09:15:27;;;;;;;;;;;14.10;99.90;;;;;;5060750;28;1522;-43
2021/10/13 09:18:11;;;;;;;;;;;14.20;99.90;;;;;;5073907;28;1906;-43
2021/10/13 09:20:38;;;;;;;;;;;14.20;99.90;;;;;;5076096;28;963;-43
2021/10/13 09:23:05;;;;;;;;;;;14.20;99.90;;;;;;5076011;28;868;-43
2021/10/13 09:25:32;;;;;;;;;;;14.20;99.90;;;;;;5075992;28;811;-43
2021/10/13 09:28:00;;;;;;;;;;;14.30;99.90;;;;;;5054006;28;1564;-43
2021/10/13 09:30:35;;;;;;;;;;;14.30;99.90;;;;;;5055438;28;1390;-43
2021/10/13 09:33:11;;;;;;;;;;;14.30;99.90;;;;;;5055569;28;837;-43
2021/10/13 09:35:41;;;;;;;;;;;14.30;99.90;;;;;;5058675;28;808;-43
2021/10/13 09:38:06;;;;;;;;;;;14.30;99.90;;;;;;5064472;28;1910;-43
2021/10/13 09:40:34;;;;;;;;;;;14.30;99.90;;;;;;5079256;28;889;-43
2021/10/13 09:43:01;;;;;;;;;;;14.30;99.90;;;;;;5079616;28;816;-43
2021/10/13 09:45:29;;;;;;;;;;;14.30;99.90;;;;;;5061606;28;1332;-43
2021/10/13 09:48:04;;;;;;;;;;;14.30;99.90;;;;;;5079137;28;833;-43
2021/10/13 09:50:43;;;;;;;;;;;14.30;99.90;;;;;;5079200;28;788;-43
2021/10/13 09:53:19;;;;;;;;;;;14.40;99.90;;;;;;5079357;28;994;-43
2021/10/13 09:55:45;;;;;;;;;;;14.40;99.90;;;;;;5078942;28;811;-43
2021/10/13 09:58:23;;;;;;;;;;;14.40;99.90;;;;;;5073149;28;1950;-43
2021/10/13 10:00:49;;;;;;;;;;;14.40;99.90;;;;;;5058623;28;1089;-43
2021/10/13 10:03:16;;;;;;;;;;;14.50;99.90;;;;;;5059121;28;857;-43
2021/10/13 10:05:42;;;;;;;;;;;14.50;99.90;;;;;;5059032;28;758;-43
2021/10/13 10:08:13;;;;;;;;;;;14.50;99.90;;;;;;5058997;28;943;-43
2021/10/13 10:11:00;;;;;;;;;;;14.50;99.90;;;;;;5058918;28;860;-43
2021/10/13 10:13:34;;;;;;;;;;;14.50;99.90;;;;;;5058925;28;1550;-43
2021/10/13 10:16:01;;;;;;;;;;;14.50;99.90;;;;;;5058511;28;872;-43
2021/10/13 10:18:32;;;;;;;;;;;14.50;99.90;;;;;;5058446;28;1906;-43
2021/10/13 10:21:15;;;;;;;;;;;14.50;99.90;;;;;;5058539;28;809;-43
2021/10/13 10:23:41;;;;;;;;;;;14.60;99.90;;;;;;5058725;28;879;-43
2021/10/13 10:26:25;;;;;;;;;;;14.60;99.90;;;;;;5058699;28;853;-43
2021/10/13 10:28:50;;;;;;;;;;;14.60;99.90;;;;;;5058118;28;868;-43
2021/10/13 10:31:34;;;;;;;;;;;14.70;99.90;;;;;;5058271;28;749;-43
2021/10/13 10:34:18;;;;;;;;;;;14.70;99.90;;;;;;5058301;28;796;-43
2021/10/13 10:36:44;;;;;;;;;;;14.70;99.90;;;;;;5058060;28;826;-43
2021/10/13 10:39:10;;;;;;;;;;;14.70;99.90;;;;;;5058095;28;1957;-43
2021/10/13 10:41:39;;;;;;;;;;;14.70;99.90;;;;;;5058092;28;927;-43
2021/10/13 10:44:23;;;;;;;;;;;14.70;99.90;;;;;;5057866;28;858;-43
2021/10/13 10:46:58;;;;;;;;;;;14.70;99.90;;;;;;5057258;28;836;-43
2021/10/13 10:49:42;;;;;;;;;;;14.70;99.90;;;;;;5058550;28;890;-43
2021/10/13 10:52:09;;;;;;;;;;;14.70;99.90;;;;;;5057820;28;915;-43
2021/10/13 10:54:36;;;;;;;;;;;14.70;99.90;;;;;;5057907;28;801;-43
2021/10/13 10:57:22;;;;;;;;;;;14.70;99.90;;;;;;5057837;28;852;-43
2021/10/13 10:59:48;;;;;;;;;;;14.70;99.90;;;;;;5057048;28;1914;-43
2021/10/13 11:02:20;;;;;;;;;;;14.70;99.90;;;;;;5057769;28;734;-43
2021/10/13 11:04:59;;;;;;;;;;;14.80;99.90;;;;;;5057971;28;888;-43
2021/10/13 11:07:25;;;;;;;;;;;14.80;99.90;;;;;;5056693;28;1395;-43
2021/10/13 11:09:57;;;;;;;;;;;14.90;99.90;;;;;;5057808;28;779;-43
2021/10/13 11:12:23;;;;;;;;;;;15.10;99.90;;;;;;5057739;28;928;-43
2021/10/13 11:14:48;;;;;;;;;;;15.10;99.90;;;;;;5057310;28;729;-43
2021/10/13 11:17:23;;;;;;;;;;;15.10;99.90;;;;;;5057385;28;738;-43
2021/10/13 11:19:49;;;;;;;;;;;15.20;99.90;;;;;;5057583;28;1969;-43
2021/10/13 11:22:15;;;;;;;;;;;15.20;99.90;;;;;;5057106;28;805;-44
2021/10/13 11:24:46;;;;;;;;;;;15.20;99.90;;;;;;5057491;28;928;-44
2021/10/13 11:27:12;;;;;;;;;;;15.30;99.90;;;;;;5057761;28;722;-44
2021/10/13 11:29:42;;;;;;;;;;;15.40;99.90;;;;;;5056811;28;930;-44
2021/10/13 11:32:11;;;;;;;;;;;15.40;99.90;;;;;;5039534;28;1538;-44
2021/10/13 11:34:39;;;;;;;;;;;15.50;99.90;;;;;;5057290;28;816;-44
2021/10/13 11:37:06;;;;;;;;;;;15.50;99.90;;;;;;5056827;28;777;-42
2021/10/13 11:39:34;;;;;;;;;;;15.50;99.90;;;;;;5056946;28;1898;-42
2021/10/13 11:42:00;;;;;;;;;;;15.50;99.90;;;;;;5056736;28;781;-42
2021/10/13 11:44:27;;;;;;;;;;;15.40;99.90;;;;;;5056708;28;992;-42
2021/10/13 11:46:53;;;;;;;;;;;15.40;99.90;;;;;;5056593;28;832;-42
2021/10/13 11:49:19;;;;;;;;;;;15.30;99.90;;;;;;5057033;28;718;-42
2021/10/13 11:52:02;;;;;;;;;;;15.30;99.90;;;;;;5056556;28;964;-42
2021/10/13 11:54:28;;;;;;;;;;;15.30;99.90;;;;;;5039786;28;1498;-42
2021/10/13 11:56:53;;;;;;;;;;;15.30;99.90;;;;;;5056578;28;880;-42
2021/10/13 11:59:19;;;;;;;;;;;15.30;99.90;;;;;;5055998;28;1898;-42
2021/10/13 12:01:44;;;;;;;;;;;15.30;99.90;;;;;;5056793;28;784;-42
2021/10/13 12:04:11;;;;;;;;;;;15.30;99.90;;;;;;5056796;28;781;-42
2021/10/13 12:06:42;;;;;;;;;;;15.20;99.90;;;;;;5056325;28;851;-42
2021/10/13 12:09:08;;;;;;;;;;;15.30;99.90;;;;;;5056732;28;777;-42
2021/10/13 12:11:39;;;;;;;;;;;15.30;99.90;;;;;;5056469;28;1002;-42
2021/10/13 12:14:11;;;;;;;;;;;15.20;99.90;;;;;;5056486;28;800;-42
2021/10/13 12:16:38;;;;;;;;;;;15.20;99.90;;;;;;5055706;28;1295;-43
2021/10/13 12:19:14;;;;;;;;;;;15.20;99.90;;;;;;5056273;28;1960;-42
2021/10/13 12:22:01;;;;;;;;;;;15.20;99.90;;;;;;5056145;28;809;-42
2021/10/13 12:24:26;;;;;;;;;;;15.20;99.90;;;;;;5055680;28;1153;-42
2021/10/13 12:26:52;;;;;;;;;;;15.20;99.90;;;;;;5056514;28;907;-42
2021/10/13 12:29:17;;;;;;;;;;;15.20;99.90;;;;;;5055973;28;776;-42
2021/10/13 12:31:43;;;;;;;;;;;15.20;99.90;;;;;;5056410;28;836;-42
2021/10/13 12:34:15;;;;;;;;;;;15.10;99.90;;;;;;5056083;28;785;-42
2021/10/13 12:36:51;;;;;;;;;;;15.10;99.90;;;;;;5055804;28;807;-42
2021/10/13 12:39:29;;;;;;;;;;;15.10;99.90;;;;;;5055991;28;1965;-42
2021/10/13 12:42:06;;;;;;;;;;;15.10;99.90;;;;;;5056345;28;753;-42
2021/10/13 12:44:32;;;;;;;;;;;15.10;99.90;;;;;;5055724;28;1264;-42
2021/10/13 12:47:05;;;;;;;;;;;15.10;99.90;;;;;;5056513;28;845;-42
2021/10/13 12:49:50;;;;;;;;;;;15.10;99.90;;;;;;5055932;28;948;-42
2021/10/13 12:52:21;;;;;;;;;;;15.10;99.90;;;;;;5055808;28;785;-42
2021/10/13 12:54:48;;;;;;;;;;;15.10;99.90;;;;;;5056146;28;751;-42
2021/10/13 12:57:16;;;;;;;;;;;15.10;99.90;;;;;;5055871;28;904;-42
2021/10/13 12:59:41;;;;;;;;;;;15.10;99.90;;;;;;5055539;28;1914;-42
2021/10/13 13:02:07;;;;;;;;;;;15.00;99.90;;;;;;5056109;28;734;-42
2021/10/13 13:04:33;;;;;;;;;;;15.10;99.90;;;;;;5055815;28;782;-42
2021/10/13 13:06:59;;;;;;;;;;;15.10;99.90;;;;;;5055626;28;807;-42
2021/10/13 13:09:26;;;;;;;;;;;15.10;99.90;;;;;;5057541;28;834;-42
2021/10/13 13:11:53;;;;;;;;;;;15.10;99.90;;;;;;5060062;28;789;-42
2021/10/13 13:14:20;;;;;;;;;;;15.00;99.90;;;;;;5059631;28;836;-42
2021/10/13 13:16:45;;;;;;;;;;;15.00;99.90;;;;;;5060014;28;797;-43
2021/10/13 13:19:13;;;;;;;;;;;15.10;99.90;;;;;;5059900;28;1914;-43
2021/10/13 13:21:39;;;;;;;;;;;15.00;99.90;;;;;;5059483;28;816;-43
2021/10/13 13:24:05;;;;;;;;;;;15.00;99.90;;;;;;5059799;28;1713;-42
2021/10/13 13:26:31;;;;;;;;;;;15.00;99.90;;;;;;5059503;28;812;-42
2021/10/13 13:28:57;;;;;;;;;;;15.00;99.90;;;;;;5059740;28;1104;-42
2021/10/13 13:31:24;;;;;;;;;;;15.00;99.90;;;;;;5059354;28;1635;-43
2021/10/13 13:33:51;;;;;;;;;;;15.00;99.90;;;;;;5059379;28;813;-42
2021/10/13 13:36:18;;;;;;;;;;;15.00;99.90;;;;;;5059166;28;1547;-43
2021/10/13 13:38:44;;;;;;;;;;;15.00;99.90;;;;;;5025001;28;1973;-43
2021/10/13 13:41:10;;;;;;;;;;;15.00;99.90;;;;;;5058841;28;1354;-43
2021/10/13 13:43:35;;;;;;;;;;;15.00;99.90;;;;;;5059498;28;868;-43
2021/10/13 13:46:01;;;;;;;;;;;15.00;99.90;;;;;;5059845;28;951;-43
2021/10/13 13:48:28;;;;;;;;;;;15.00;99.90;;;;;;5059403;28;806;-43
2021/10/13 13:50:59;;;;;;;;;;;15.00;99.90;;;;;;5058967;28;876;-43
2021/10/13 13:53:26;;;;;;;;;;;15.00;99.90;;;;;;5059034;28;886;-43
2021/10/13 13:55:53;;;;;;;;;;;15.00;99.90;;;;;;5059275;28;865;-43
2021/10/13 13:58:18;;;;;;;;;;;15.00;99.90;;;;;;5058814;28;1967;-43
2021/10/13 14:00:44;;;;;;;;;;;15.00;99.90;;;;;;5058665;28;1299;-43
2021/10/13 14:03:10;;;;;;;;;;;15.00;99.90;;;;;;5058843;28;944;-43
2021/10/13 14:05:35;;;;;;;;;;;15.00;99.90;;;;;;5058689;28;757;-43
2021/10/13 14:08:02;;;;;;;;;;;15.00;99.90;;;;;;5058767;28;844;-42
2021/10/13 14:10:29;;;;;;;;;;;15.00;99.90;;;;;;5058959;28;834;-42
2021/10/13 14:12:55;;;;;;;;;;;14.90;99.90;;;;;;5058596;28;856;-42
2021/10/13 14:15:22;;;;;;;;;;;14.90;99.90;;;;;;5058375;28;951;-42
2021/10/13 14:17:48;;;;;;;;;;;14.90;99.90;;;;;;5058764;28;1906;-42
2021/10/13 14:20:14;;;;;;;;;;;14.90;99.90;;;;;;5057808;28;882;-42
2021/10/13 14:22:39;;;;;;;;;;;15.00;99.90;;;;;;5057897;28;1039;-42
2021/10/13 14:25:05;;;;;;;;;;;15.00;99.90;;;;;;5058405;28;807;-42
2021/10/13 14:27:30;;;;;;;;;;;15.00;99.90;;;;;;5058613;28;821;-42
2021/10/13 14:29:57;;;;;;;;;;;15.00;99.90;;;;;;5058169;28;804;-42
2021/10/13 14:32:24;;;;;;;;;;;15.00;99.90;;;;;;5058532;28;864;-42
2021/10/13 14:34:50;;;;;;;;;;;14.90;99.90;;;;;;5058216;28;912;-42
2021/10/13 14:37:17;;;;;;;;;;;15.00;99.90;;;;;;5058071;28;762;-42
2021/10/13 14:39:46;;;;;;;;;;;15.00;99.90;;;;;;5058329;28;1959;-42
2021/10/13 14:42:12;;;;;;;;;;;14.90;99.90;;;;;;5058083;28;782;-42
2021/10/13 14:44:38;;;;;;;;;;;14.90;99.90;;;;;;5058510;28;800;-42
2021/10/13 14:47:04;;;;;;;;;;;14.90;99.90;;;;;;5057996;28;964;-42